This is the latest recevied weather packets stored in our database for station/object PU2ONU-13. If no packets are shown the sender has not sent any weather packets the latest 10 day(s).
| Time | Temp. | Humidity | Pressure | Rain* | Wind** | Luminosity | Snow |
|---|---|---|---|---|---|---|---|
| 1777627212 | 28.33° C | 47% | 1018 hPa | - | - | - | - |
| 1777626013 | 28.89° C | 46% | 1017 hPa | - | - | - | - |
| 1777624812 | 28.33° C | 46% | 1017 hPa | - | - | - | - |
| 1777623612 | 28.33° C | 47% | 1017 hPa | - | - | - | - |
| 1777621213 | 28.89° C | 46% | 1017 hPa | - | - | - | - |
| 1777620013 | 28.33° C | 47% | 1017 hPa | - | - | - | - |
| 1777618813 | 28.33° C | 47% | 1017 hPa | - | - | - | - |
| 1777617614 | 28.89° C | 45% | 1017 hPa | - | - | - | - |
| 1777616414 | 28.89° C | 46% | 1017 hPa | - | - | - | - |
| 1777615213 | 28.89° C | 45% | 1017 hPa | - | - | - | - |
| 1777614013 | 29.44° C | 43% | 1017 hPa | - | - | - | - |
| 1777612814 | 30° C | 42% | 1018 hPa | - | - | - | - |
| 1777611613 | 30° C | 42% | 1017 hPa | - | - | - | - |
| 1777610414 | 29.44° C | 43% | 1017 hPa | - | - | - | - |
| 1777609213 | 29.44° C | 43% | 1018 hPa | - | - | - | - |
| 1777608012 | 29.44° C | 44% | 1017 hPa | - | - | - | - |
| 1777606813 | 30° C | 43% | 1017 hPa | - | - | - | - |
| 1777605613 | 30° C | 43% | 1018 hPa | - | - | - | - |
| 1777604412 | 30° C | 43% | 1018 hPa | - | - | - | - |
| 1777603214 | 29.44° C | 43% | 1018 hPa | - | - | - | - |
| 1777602016 | 30.56° C | 42% | 1019 hPa | - | - | - | - |
| 1777584013 | 34.44° C | 35% | 1016 hPa | - | - | - | - |
| 1777581615 | 33.89° C | 34% | 1014 hPa | - | - | - | - |
| 1777576814 | 31.67° C | 39% | 1014 hPa | - | - | - | - |
| 1777575610 | 32.78° C | 37% | 1014 hPa | - | - | - | - |
* Rain since midnight (hover to see other rain measurements)
** Current wind speed in m/s (hover to see current wind gust speed)